Home > Products > Valid Products > MTR

000
SAUS43 KDDC 230703
MTRP28
METAR KP28 230656Z AUTO 16005KT 26/16 A2989 RMK AO1 SLP100 T02610156





000
SAUS43 KDDC 230603
MTRP28
METAR KP28 230556Z AUTO 17008KT 28/16 A2989 RMK AO1 SLP098 T02780161
10378 20278 403940250 51004





000
SAUS43 KDDC 230503
MTRP28
METAR KP28 230456Z AUTO 17011G15KT 29/16 A2988 RMK AO1 SLP096
T02890161





000
SAUS43 KDDC 230402
MTRP28
METAR KP28 230356Z AUTO 16006KT 31/16 A2988 RMK AO1 SLP097 T03060156





000
SAUS43 KDDC 230303
MTRP28
METAR KP28 230256Z AUTO 16007KT 32/16 A2987 RMK AO1 SLP093 T03220156
53015





000
SAUS43 KDDC 230203
MTRP28
METAR KP28 230156Z AUTO 16007KT 34/16 A2985 RMK AO1 SLP086 T03390161





000
SAUS43 KDDC 230103
MTRP28
METAR KP28 230056Z AUTO 17009G20KT 36/15 A2982 RMK AO1 SLP078
T03560150





000
SAUS43 KDDC 230003
MTRP28
METAR KP28 222356Z AUTO 18014G18KT 38/16 A2983 RMK AO1 SLP078
T03780156 10394 20361 55006





000
SAUS43 KDDC 222303
MTRP28
METAR KP28 222256Z AUTO 19016G24KT 38/15 A2982 RMK AO1 SLP075
T03830150





000
SAUS43 KDDC 222203
MTRP28
METAR KP28 222156Z AUTO 19014G22KT 39/16 A2981 RMK AO1 SLP073
T03890161





000
SAUS43 KDDC 222103
MTRP28
METAR KP28 222056Z AUTO 21015G22KT 39/16 A2985 RMK AO1 SLP083
T03890161 58016





000
SAUS43 KDDC 222003
MTRP28
METAR KP28 221956Z AUTO 18012G18KT 39/17 A2987 RMK AO1 SLP091
T03890172





000
SAUS43 KDDC 221903
MTRP28
METAR KP28 221856Z AUTO 22008KT 38/18 A2989 RMK AO1 SLP098 T03780178





000
SAUS43 KDDC 221802
MTRP28
METAR KP28 221756Z AUTO 20011KT 36/19 A2990 RMK AO1 SLP100 T03610189
10367 20250 58008





000
SAUS43 KDDC 221703
MTRP28
METAR KP28 221656Z AUTO 26009KT 34/19 A2992 RMK AO1 SLP108 T03440194





000
SAUS43 KDDC 221603
MTRP28
METAR KP28 221556Z AUTO 23013G18KT 34/18 A2992 RMK AO1 SLP110
T03390183





000
SAUS43 KDDC 221503 COR
MTRP28
METAR KP28 221456Z AUTO 18007KT 31/19 A2992 RMK AO1 SLP109 T03110194
50002





000
SAUS43 KDDC 221403
MTRP28
METAR KP28 221356Z AUTO 16007KT 28/18 A2992 RMK AO1 SLP112 T02780183





000
SAUS43 KDDC 221303
MTRP28
METAR KP28 221256Z AUTO 13005KT 25/18 A2992 RMK AO1 SLP113 T02500183





000
SAUS43 KDDC 221203
MTRP28
METAR KP28 221156Z AUTO 13007KT 25/19 A2991 RMK AO1 SLP109 T02500189
10289 20250 53005





000
SAUS43 KDDC 221103
MTRP28
METAR KP28 221056Z AUTO 14007KT 26/19 A2990 RMK AO1 SLP104 T02560194





000
SAUS43 KDDC 221003
MTRP28
METAR KP28 220956Z AUTO 14007KT 26/20 A2989 RMK AO1 SLP099 T02610200





000
SAUS43 KDDC 220903
MTRP28
METAR KP28 220856Z AUTO 14008KT 27/21 A2990 RMK AO1 SLP102 T02720206
58005





000
SAUS43 KDDC 220803
MTRP28
METAR KP28 220756Z AUTO 14005KT 28/21 A2991 RMK AO1 SLP105 T02780211





000
SAUS43 KDDC 220703
MTRP28
METAR KP28 220656Z AUTO 15006KT 28/21 A2991 RMK AO1 SLP106 T02780211





000
SAUS43 KDDC 220603
MTRP28
METAR KP28 220556Z AUTO 16005KT 29/21 A2991 RMK AO1 SLP107 T02890211
10361 20289 403780233 53013





000
SAUS43 KDDC 220503
MTRP28
METAR KP28 220456Z AUTO 16007KT 29/21 A2990 RMK AO1 SLP102 T02940211





000
SAUS43 KDDC 220403
MTRP28
METAR KP28 220356Z AUTO 15008KT 30/19 A2989 RMK AO1 SLP099 T03000194





000
SAUS43 KDDC 220303
MTRP28
METAR KP28 220256Z AUTO 16007KT 32/17 A2987 RMK AO1 SLP095 T03170172
53015





000
SAUS43 KDDC 220203
MTRP28
METAR KP28 220156Z AUTO 17008KT 33/18 A2986 RMK AO1 SLP090 T03330178





000
SAUS43 KDDC 220103
MTRP28
METAR KP28 220056Z AUTO 18009KT 35/18 A2984 RMK AO1 SLP085 T03500183





000
SAUS43 KDDC 220003
MTRP28
METAR KP28 212356Z AUTO 18016G22KT 36/18 A2983 RMK AO1 SLP080
T03610183 10378 20350 55003





000
SAUS43 KDDC 212303
MTRP28
METAR KP28 212256Z AUTO 18017G21KT 37/18 A2982 RMK AO1 SLP078
T03720183





000
SAUS43 KDDC 212203
MTRP28
METAR KP28 212156Z AUTO 19015G26KT 37/19 A2983 RMK AO1 PK WND
19026/2152 SLP081 T03720189





000
SAUS43 KDDC 212103
MTRP28
METAR KP28 212056Z AUTO 20018G22KT 37/18 A2984 RMK AO1 PK WND
18027/2013 SLP082 T03720183 57015





000
SAUS43 KDDC 212003
MTRP28
METAR KP28 211956Z AUTO 19015G25KT 37/19 A2985 RMK AO1 PK WND
19026/1928 SLP087 T03720189





000
SAUS43 KDDC 211903
MTRP28
METAR KP28 211856Z AUTO 21014G21KT 36/19 A2987 RMK AO1 SLP092
T03610189





000
SAUS43 KDDC 211803
MTRP28
METAR KP28 211756Z AUTO 18012G20KT 35/18 A2988 RMK AO1 SLP097
T03500183 10350 20233 58006





000
SAUS43 KDDC 211703
MTRP28
METAR KP28 211656Z AUTO 23016G23KT 33/18 A2990 RMK AO1 SLP103
T03330178





000
SAUS43 KDDC 211603
MTRP28
METAR KP28 211556Z AUTO 20016G23KT 32/17 A2990 RMK AO1 SLP105
T03170172





000
SAUS43 KDDC 211503
MTRP28
METAR KP28 211456Z AUTO 19016G22KT 29/17 A2990 RMK AO1 SLP105
T02940172 50005





000
SAUS43 KDDC 211403
MTRP28
METAR KP28 211356Z AUTO 18010KT 27/18 A2990 RMK AO1 SLP106 T02670178





000
SAUS43 KDDC 211303
MTRP28
METAR KP28 211256Z AUTO 16007KT 24/18 A2991 RMK AO1 SLP107 T02440178





000
SAUS43 KDDC 211203
MTRP28
METAR KP28 211156Z AUTO 15007KT 24/18 A2989 RMK AO1 SLP100 T02390178
10283 20239 51012





000
SAUS43 KDDC 211103
MTRP28
METAR KP28 211056Z AUTO 13008KT 24/18 A2987 RMK AO1 SLP095 T02390178





000
SAUS43 KDDC 211003
MTRP28
METAR KP28 210956Z AUTO 14006KT 25/18 A2986 RMK AO1 SLP092 T02500178





000
SAUS43 KDDC 210903
MTRP28
METAR KP28 210856Z AUTO 15006KT 26/18 A2985 RMK AO1 SLP087 T02560178
58002





000
SAUS43 KDDC 210803
MTRP28
METAR KP28 210756Z AUTO 17008KT 27/18 A2985 RMK AO1 SLP087 T02670178





000
SAUS43 KDDC 210703
MTRP28
METAR KP28 210656Z AUTO 17007KT 27/18 A2986 RMK AO1 SLP090 T02720178





000
SAUS43 KDDC 210603
MTRP28
METAR KP28 210556Z AUTO 18013G20KT 28/18 A2986 RMK AO1 SLP090
T02830178 10356 20283 403720217 51012





000
SAUS43 KDDC 210503
MTRP28
METAR KP28 210456Z AUTO 18014G25KT 29/17 A2985 RMK AO1 SLP088
T02890172





000
SAUS43 KDDC 210403
MTRP28
METAR KP28 210356Z AUTO 17010G20KT 29/17 A2984 RMK AO1 SLP084
T02940167





000
SAUS43 KDDC 210403
MTRP28
METAR KP28 210356Z AUTO 17010G20KT 29/17 A2984 RMK AO1 SLP084
T02940167





000
SAUS43 KDDC 210303
MTRP28
METAR KP28 210256Z AUTO 15011G18KT 30/18 A2982 RMK AO1 SLP079
T03000178 53018





000
SAUS43 KDDC 210203
MTRP28
METAR KP28 210156Z AUTO 16007KT 32/16 A2979 RMK AO1 SLP069 T03220161





000
SAUS43 KDDC 210103
MTRP28
METAR KP28 210056Z AUTO 18010KT 34/16 A2977 RMK AO1 SLP063 T03390156





000
SAUS43 KDDC 210003
MTRP28
METAR KP28 202356Z AUTO 19014G23KT 36/16 A2977 RMK AO1 SLP060
T03560156 10372 20333 56003





000
SAUS43 KDDC 202303
MTRP28
METAR KP28 202256Z AUTO 20016G25KT 37/16 A2977 RMK AO1 SLP060
T03670161





000
SAUS43 KDDC 202203
MTRP28
METAR KP28 202156Z AUTO 18018G24KT 37/17 A2977 RMK AO1 PK WND
19028/2113 SLP061 T03720172





000
SAUS43 KDDC 202103
MTRP28
METAR KP28 202056Z AUTO 19020G27KT 37/17 A2978 RMK AO1 PK WND
20027/2050 SLP063 T03670172 58019





000
SAUS43 KDDC 202004 COR
MTRP28
METAR KP28 201956Z AUTO 17017G26KT 36/18 A2979 RMK AO1 PK WND
17026/1955 SLP068 T03610178





000
SAUS43 KDDC 202003
MTRP28
METAR KP28 201956Z AUTO 17017G26KT 36/18 A2979 RMK AO1 PK WND
17026/1955 SLP068 T03610178





000
SAUS43 KDDC 201903
MTRP28
METAR KP28 201856Z AUTO 19011G20KT 160V220 35/19 A2982 RMK AO1
SLP077 T03500189





000
SAUS43 KDDC 201804 COR
MTRP28
METAR KP28 201756Z AUTO 17013G22KT 33/19 A2983 RMK AO1 SLP082
T03330194 10339 20217 58007





000
SAUS43 KDDC 201803
MTRP28
METAR KP28 201756Z AUTO 17013G22KT 33/19 A2983 RMK AO1 SLP082
T03330194 10339 20217 58007





000
SAUS43 KDDC 201703
MTRP28
METAR KP28 201656Z AUTO 20011G20KT 33/19 A2984 RMK AO1 SLP085
T03280194





000
SAUS43 KDDC 201603
MTRP28
METAR KP28 201556Z AUTO 19014KT 31/19 A2985 RMK AO1 SLP087 T03060194





000
SAUS43 KDDC 201503
MTRP28
METAR KP28 201456Z AUTO 19013G20KT 27/19 A2985 RMK AO1 SLP091
T02720189 50004





000
SAUS43 KDDC 201403
MTRP28
METAR KP28 201356Z AUTO 18008KT 25/19 A2986 RMK AO1 SLP092 T02500189





000
SAUS43 KDDC 201303
MTRP28
METAR KP28 201256Z AUTO 16005KT 23/19 A2985 RMK AO1 SLP088 T02330189





000
SAUS43 KDDC 201203
MTRP28
METAR KP28 201156Z AUTO 13008KT 22/18 A2984 RMK AO1 SLP086 T02170183
10256 20217 53001





000
SAUS43 KDDC 201103
MTRP28
METAR KP28 201056Z AUTO 14006KT 22/18 A2984 RMK AO1 SLP085 T02170178





000
SAUS43 KDDC 201003
MTRP28
METAR KP28 200956Z AUTO 15005KT 23/18 A2984 RMK AO1 SLP083 T02280178





000
SAUS43 KDDC 200903
MTRP28
METAR KP28 200856Z AUTO 16007KT 23/18 A2984 RMK AO1 SLP083 T02330178
56005





000
SAUS43 KDDC 200758
MTRP28
METAR KP28 200756Z AUTO 17007KT 24/17 A2984 RMK AO1 SLP084 T02390172





    US Dept of Commerce
    National Oceanic and Atmospheric Administration
    National Weather Service
    1325 East West Highway
    Silver Spring, MD 20910
    Page Author: NWS Internet Services Team
Disclaimer
Information Quality
Credits
Glossary
Privacy Policy
Freedom of Information Act (FOIA)
About Us
Career Opportunities